Time;durP1;ratioP1;P1;durP2;ratioP2;P2;SDS_P1;SDS_P2;PMS_P1;PMS_P2;Temp;Humidity;BMP_temperature;BMP_pressure;BME280_temperature;BME280_humidity;BME280_pressure;Samples;Min_cycle;Max_cycle;Signal;HPM_P1;HPM_P2
2023/02/12 00:01:27;;;;;;;30.50;16.10;;;;;;;-1.18;100.00;100404.56;105404;1257;60444;-56
2023/02/12 00:03:56;;;;;;;29.40;17.60;;;;;;;-1.17;100.00;100400.91;105672;1257;75372;-53
2023/02/12 00:06:25;;;;;;;27.30;16.00;;;;;;;-1.16;100.00;100392.50;105496;1256;67645;-53
2023/02/12 00:08:55;;;;;;;26.50;16.10;;;;;;;-1.15;100.00;100389.36;105742;1256;74163;-54
2023/02/12 00:11:26;;;;;;;24.50;15.50;;;;;;;-1.14;100.00;100387.88;105562;1254;60556;-54
2023/02/12 00:13:56;;;;;;;26.30;16.90;;;;;;;-1.12;100.00;100383.34;105528;1254;60664;-55
2023/02/12 00:16:26;;;;;;;27.40;15.50;;;;;;;-1.10;100.00;100379.60;105780;1253;75295;-54
2023/02/12 00:18:55;;;;;;;23.60;14.00;;;;;;;-1.09;100.00;100374.27;106003;1256;67809;-58
2023/02/12 00:21:24;;;;;;;24.90;14.50;;;;;;;-1.07;100.00;100370.52;105776;1254;73686;-54
2023/02/12 00:23:52;;;;;;;26.10;15.40;;;;;;;-1.06;100.00;100364.96;105619;1256;60472;-54
2023/02/12 00:26:21;;;;;;;21.90;14.20;;;;;;;-1.04;100.00;100362.46;105815;1255;61624;-54
2023/02/12 00:28:50;;;;;;;23.30;14.90;;;;;;;-1.02;100.00;100356.73;105804;1253;75268;-57
2023/02/12 00:31:21;;;;;;;25.40;14.70;;;;;;;-1.01;100.00;100348.41;105353;1256;67604;-54
2023/02/12 00:33:49;;;;;;;22.40;14.10;;;;;;;-0.97;100.00;100342.86;105735;1257;73940;-55
2023/02/12 00:36:20;;;;;;;23.90;14.10;;;;;;;-0.92;100.00;100342.90;105733;1257;60562;-55
2023/02/12 00:38:50;;;;;;;22.60;13.90;;;;;;;-0.89;100.00;100335.02;105810;1256;61086;-58
2023/02/12 00:41:18;;;;;;;22.20;13.70;;;;;;;-0.86;100.00;100331.33;105472;1256;76436;-55
2023/02/12 00:43:48;;;;;;;28.20;14.90;;;;;;;-0.80;100.00;100326.17;105642;1254;67051;-58
2023/02/12 00:46:17;;;;;;;23.10;13.40;;;;;;;-0.78;100.00;100323.27;105584;1254;73905;-54
2023/02/12 00:48:46;;;;;;;27.00;14.70;;;;;;;-0.77;100.00;100320.34;105888;1257;60434;-57
2023/02/12 00:51:14;;;;;;;23.00;14.00;;;;;;;-0.78;100.00;100315.80;105795;1256;60731;-55
2023/02/12 00:53:44;;;;;;;24.70;14.70;;;;;;;-0.79;100.00;100318.04;105712;1253;74483;-55
2023/02/12 00:56:13;;;;;;;26.40;15.70;;;;;;;-0.80;100.00;100313.82;105913;1253;67477;-55
2023/02/12 00:58:41;;;;;;;24.90;14.60;;;;;;;-0.79;100.00;100310.72;105700;1257;74032;-56
2023/02/12 01:01:10;;;;;;;25.50;15.00;;;;;;;-0.80;100.00;100309.95;105398;1253;60602;-56
2023/02/12 01:03:39;;;;;;;24.70;15.20;;;;;;;-0.82;100.00;100311.61;105329;1253;61569;-56
2023/02/12 01:06:07;;;;;;;23.40;14.60;;;;;;;-0.82;100.00;100310.98;105473;1256;75403;-56
2023/02/12 01:08:38;;;;;;;24.00;15.30;;;;;;;-0.84;100.00;100310.23;105385;1254;68372;-56
2023/02/12 01:11:07;;;;;;;25.10;15.10;;;;;;;-0.86;100.00;100305.08;105120;1254;74530;-54
2023/02/12 01:13:36;;;;;;;22.80;14.20;;;;;;;-0.88;100.00;100306.90;105427;1254;61519;-54
2023/02/12 01:16:19;;;;;;;26.10;15.70;;;;;;;-0.90;100.00;100303.98;105541;1257;61975;-54
2023/02/12 01:18:48;;;;;;;26.20;14.30;;;;;;;-0.91;100.00;100302.21;105648;1254;74971;-57
2023/02/12 01:21:21;;;;;;;25.90;15.90;;;;;;;-0.92;100.00;100300.21;105721;1253;66744;-53
2023/02/12 01:23:50;;;;;;;25.90;15.20;;;;;;;-0.92;100.00;100294.45;105561;1254;73155;-55
2023/02/12 01:26:20;;;;;;;24.70;15.70;;;;;;;-0.92;100.00;100291.50;105439;1257;63011;-57
2023/02/12 01:28:53;;;;;;;28.30;16.10;;;;;;;-0.90;100.00;100292.95;105226;1253;61417;-53
2023/02/12 01:31:24;;;;;;;25.00;15.30;;;;;;;-0.90;100.00;100287.80;105387;1254;74711;-54
2023/02/12 01:33:53;;;;;;;28.50;16.50;;;;;;;-0.89;100.00;100288.05;105313;1257;68373;-54
2023/02/12 01:36:24;;;;;;;23.80;14.60;;;;;;;-0.88;100.00;100286.95;105574;1254;73377;-56
2023/02/12 01:38:55;;;;;;;26.60;15.60;;;;;;;-0.86;100.00;100285.84;105441;1257;61607;-54
2023/02/12 01:41:26;;;;;;;25.40;15.20;;;;;;;-0.86;100.00;100278.79;105439;1256;61167;-54
2023/02/12 01:44:07;;;;;;;26.50;14.90;;;;;;;-0.85;100.00;100278.55;105837;1257;75355;-56
2023/02/12 01:46:36;;;;;;;22.10;14.70;;;;;;;-0.84;100.00;100274.41;105398;1254;67154;-55
2023/02/12 01:49:07;;;;;;;26.60;15.00;;;;;;;-0.84;100.00;100269.60;105382;1253;73100;-54
2023/02/12 01:51:39;;;;;;;25.10;15.50;;;;;;;-0.84;100.00;100266.20;105234;1258;61083;-57
2023/02/12 01:54:09;;;;;;;27.10;16.80;;;;;;;-0.83;100.00;100259.18;105239;1257;60808;-54
2023/02/12 01:56:38;;;;;;;27.00;16.10;;;;;;;-0.83;100.00;100253.01;105493;1254;75347;-54
2023/02/12 01:59:07;;;;;;;26.80;16.30;;;;;;;-0.82;100.00;100252.63;105352;1260;67645;-54
2023/02/12 02:01:35;;;;;;;25.80;16.60;;;;;;;-0.83;100.00;100245.15;105719;1253;73120;-57
2023/02/12 02:04:09;;;;;;;27.30;16.60;;;;;;;-0.82;100.00;100237.74;105209;1254;60527;-54
2023/02/12 02:06:42;;;;;;;27.10;16.80;;;;;;;-0.81;100.00;100237.84;105396;1257;60855;-54
2023/02/12 02:09:11;;;;;;;28.00;15.90;;;;;;;-0.79;100.00;100231.39;105432;1253;74768;-57
2023/02/12 02:14:32;;;;;;;25.40;15.40;;;;;;;-0.80;100.00;100229.38;105530;1254;74171;-53
2023/02/12 02:17:13;;;;;;;25.20;15.50;;;;;;;-0.81;100.00;100229.64;105524;1256;61715;-54
2023/02/12 02:19:47;;;;;;;25.00;15.70;;;;;;;-0.82;100.00;100227.31;105442;1256;60884;-54
2023/02/12 02:22:50;;;;;;;27.60;16.80;;;;;;;-0.83;100.00;100219.39;105693;1254;73291;-55
2023/02/12 02:25:35;;;;;;;29.40;16.00;;;;;;;-0.84;100.00;100220.98;105471;1253;67208;-55
2023/02/12 02:28:28;;;;;;;27.30;16.90;;;;;;;-0.86;100.00;100215.86;105255;1254;72512;-53
2023/02/12 02:31:05;;;;;;;25.80;15.00;;;;;;;-0.90;100.00;100217.15;105496;1257;62744;-53
2023/02/12 02:33:42;;;;;;;26.30;15.90;;;;;;;-0.90;100.00;100211.77;105437;1253;61635;-53
2023/02/12 02:36:22;;;;;;;25.70;15.70;;;;;;;-0.92;100.00;100219.06;105418;1257;75730;-53
2023/02/12 02:39:05;;;;;;;25.10;15.30;;;;;;;-0.95;100.00;100218.77;105313;1256;67904;-54
2023/02/12 02:41:42;;;;;;;25.70;15.10;;;;;;;-0.97;100.00;100216.86;105706;1254;73184;-56
2023/02/12 02:44:22;;;;;;;27.10;15.70;;;;;;;-0.99;100.00;100217.49;105414;1256;62708;-54
2023/02/12 02:46:51;;;;;;;25.40;15.20;;;;;;;-1.01;100.00;100215.27;105578;1254;61645;-57
2023/02/12 02:49:28;;;;;;;23.90;16.40;;;;;;;-1.03;100.00;100210.10;105522;1253;75380;-54
2023/02/12 02:52:02;;;;;;;25.60;15.50;;;;;;;-1.04;100.00;100205.08;105310;1253;67636;-55
2023/02/12 02:54:33;;;;;;;25.00;15.60;;;;;;;-1.05;100.00;100204.62;105413;1253;74666;-57
2023/02/12 02:57:09;;;;;;;29.50;15.60;;;;;;;-1.05;100.00;100208.88;105724;1256;61189;-58
2023/02/12 02:59:42;;;;;;;26.00;15.10;;;;;;;-1.05;100.00;100207.04;105469;1254;61668;-53
2023/02/12 03:02:34;;;;;;;23.40;14.80;;;;;;;-1.06;100.00;100208.41;105614;1253;75655;-55
2023/02/12 03:05:04;;;;;;;;;;;;;;;-1.06;100.00;100204.84;105332;1254;69009;-54
2023/02/12 03:07:38;;;;;;;24.00;14.80;;;;;;;-1.06;100.00;100205.35;105437;1253;73033;-55
2023/02/12 03:10:16;;;;;;;27.60;15.70;;;;;;;-1.06;100.00;100204.02;105568;1253;61789;-55
2023/02/12 03:13:00;;;;;;;27.10;14.80;;;;;;;-1.08;100.00;100199.90;105502;1254;60815;-53
2023/02/12 03:15:57;;;;;;;28.00;16.90;;;;;;;-1.10;100.00;100197.10;106003;1252;74285;-58
2023/02/12 03:18:40;;;;;;;22.10;14.30;;;;;;;-1.12;100.00;100190.75;105483;1254;68416;-54
2023/02/12 03:21:13;;;;;;;;;;;;;;;-1.13;100.00;100193.59;105646;1254;73187;-55
2023/02/12 03:23:59;;;;;;;24.50;14.20;;;;;;;-1.13;100.00;100193.78;105523;1254;62702;-54
2023/02/12 03:27:06;;;;;;;24.60;15.70;;;;;;;-1.15;100.00;100190.50;105196;1254;62006;-56
2023/02/12 03:29:35;;;;;;;25.60;15.40;;;;;;;-1.14;100.00;100187.05;105314;1253;74444;-54
2023/02/12 03:32:32;;;;;;;24.80;15.10;;;;;;;-1.15;100.00;100184.20;105878;1254;68623;-57
2023/02/12 03:35:13;;;;;;;26.90;15.80;;;;;;;-1.16;100.00;100181.55;105512;1254;73146;-54
2023/02/12 03:38:07;;;;;;;27.30;15.00;;;;;;;-1.16;100.00;100177.31;105635;1256;61798;-55
2023/02/12 03:40:49;;;;;;;26.10;14.40;;;;;;;-1.18;100.00;100179.26;105471;1256;60863;-53
2023/02/12 03:43:23;;;;;;;27.20;14.80;;;;;;;-1.18;100.00;100178.27;105390;1254;72484;-54
2023/02/12 03:46:04;;;;;;;22.10;14.40;;;;;;;-1.20;100.00;100176.86;105389;1254;67707;-54
2023/02/12 03:48:33;;;;;;;22.00;13.90;;;;;;;-1.23;100.00;100166.95;105209;1254;74455;-57
2023/02/12 03:51:04;;;;;;;25.40;15.20;;;;;;;-1.24;100.00;100168.91;105396;1256;60753;-54
2023/02/12 03:53:33;;;;;;;22.90;12.50;;;;;;;-1.25;100.00;100165.74;105454;1254;60832;-54
2023/02/12 03:56:04;;;;;;;23.50;15.20;;;;;;;-1.26;100.00;100162.80;105513;1256;75256;-54
2023/02/12 03:58:33;;;;;;;27.40;14.30;;;;;;;-1.29;100.00;100155.82;105631;1257;67664;-58
2023/02/12 04:01:02;;;;;;;25.00;14.10;;;;;;;-1.30;100.00;100152.83;105169;1257;74472;-54
2023/02/12 04:03:30;;;;;;;22.90;14.60;;;;;;;-1.31;100.00;100151.07;105511;1257;61463;-55
2023/02/12 04:05:59;;;;;;;23.00;13.80;;;;;;;-1.33;100.00;100143.86;105320;1257;62150;-56
2023/02/12 04:08:28;;;;;;;24.10;14.00;;;;;;;-1.34;100.00;100145.33;105767;1253;75159;-57
2023/02/12 04:11:06;;;;;;;23.20;13.60;;;;;;;-1.35;100.00;100143.98;105481;1254;67113;-55
2023/02/12 04:13:43;;;;;;;27.60;14.50;;;;;;;-1.35;100.00;100144.19;105463;1254;74375;-55
2023/02/12 04:16:53;;;;;;;23.70;14.30;;;;;;;-1.36;100.00;100142.21;105762;1254;62141;-58
2023/02/12 04:19:29;;;;;;;24.20;13.70;;;;;;;-1.37;100.00;100145.83;105439;1265;60873;-57
2023/02/12 04:22:35;;;;;;;23.80;13.60;;;;;;;-1.38;100.00;100143.68;105377;1254;74370;-54
2023/02/12 04:25:06;;;;;;;24.30;14.60;;;;;;;-1.39;100.00;100140.76;105209;1257;67147;-55
2023/02/12 04:27:47;;;;;;;22.40;13.10;;;;;;;-1.41;100.00;100139.51;105651;1254;74423;-54
2023/02/12 04:30:39;;;;;;;23.90;13.50;;;;;;;-1.43;100.00;100142.18;105426;1254;62484;-57
2023/02/12 04:33:09;;;;;;;20.60;13.10;;;;;;;-1.44;100.00;100135.77;105278;1254;60448;-54
2023/02/12 04:35:48;;;;;;;26.20;13.70;;;;;;;-1.45;100.00;100128.86;105511;1254;74359;-54
2023/02/12 04:38:24;;;;;;;20.80;13.00;;;;;;;-1.47;100.00;100128.15;105443;1254;68909;-54
2023/02/12 04:40:52;;;;;;;22.20;13.70;;;;;;;-1.48;100.00;100120.89;105402;1257;72989;-54
2023/02/12 04:43:28;;;;;;;22.80;13.70;;;;;;;-1.50;100.00;100120.20;105567;1256;61763;-54
2023/02/12 04:45:57;;;;;;;22.60;12.70;;;;;;;-1.53;100.00;100126.54;105397;1255;61053;-55
2023/02/12 04:48:26;;;;;;;20.90;12.50;;;;;;;-1.55;100.00;100124.31;105637;1256;75440;-54
2023/02/12 04:50:55;;;;;;;19.80;12.60;;;;;;;-1.56;100.00;100121.83;105558;1257;67351;-54
2023/02/12 04:53:23;;;;;;;23.30;12.80;;;;;;;-1.57;100.00;100114.89;105822;1254;74259;-56
2023/02/12 04:55:52;;;;;;;24.20;12.70;;;;;;;-1.57;100.00;100116.59;105201;1256;61604;-55
2023/02/12 04:58:21;;;;;;;22.20;13.00;;;;;;;-1.56;100.00;100123.38;105665;1254;60574;-58
2023/02/12 05:00:49;;;;;;;20.20;12.70;;;;;;;-1.56;100.00;100125.90;105495;1254;76021;-55
2023/02/12 05:03:18;;;;;;;21.50;12.00;;;;;;;-1.55;100.00;100126.67;105667;1254;67093;-56
2023/02/12 05:05:47;;;;;;;22.70;13.10;;;;;;;-1.55;100.00;100123.14;105490;1254;73264;-55
2023/02/12 05:08:18;;;;;;;23.60;12.90;;;;;;;-1.55;100.00;100125.65;105616;1254;62867;-58
2023/02/12 05:10:47;;;;;;;26.50;15.30;;;;;;;-1.53;100.00;100124.67;105603;1254;62598;-57
2023/02/12 05:13:17;;;;;;;20.50;12.60;;;;;;;-1.53;100.00;100119.54;105499;1254;75265;-55
2023/02/12 05:15:46;;;;;;;21.50;12.10;;;;;;;-1.51;100.00;100119.57;105488;1254;68384;-56
2023/02/12 05:18:14;;;;;;;19.60;12.50;;;;;;;-1.50;100.00;100120.19;105802;1254;74367;-56
2023/02/12 05:20:43;;;;;;;19.40;12.00;;;;;;;-1.47;100.00;100118.64;105503;1257;61724;-55
2023/02/12 05:23:12;;;;;;;23.20;13.10;;;;;;;-1.46;100.00;100117.19;105502;1254;60596;-56
2023/02/12 05:25:41;;;;;;;21.90;13.10;;;;;;;-1.45;100.00;100115.55;105584;1254;75343;-56
2023/02/12 05:28:09;;;;;;;21.30;12.70;;;;;;;-1.45;100.00;100122.20;105708;1254;68017;-59
2023/02/12 05:30:38;;;;;;;20.80;12.40;;;;;;;-1.45;100.00;100120.69;105412;1254;73326;-57
2023/02/12 05:33:07;;;;;;;19.60;12.80;;;;;;;-1.45;100.00;100125.98;105453;1254;62250;-55
2023/02/12 05:35:36;;;;;;;22.90;13.60;;;;;;;-1.44;100.00;100125.58;105528;1256;60758;-55
2023/02/12 05:38:05;;;;;;;19.50;12.60;;;;;;;-1.43;100.00;100127.18;105763;1256;75750;-56
2023/02/12 05:40:34;;;;;;;20.20;12.80;;;;;;;-1.44;100.00;100126.04;105782;1254;67903;-58
2023/02/12 05:43:03;;;;;;;21.90;12.60;;;;;;;-1.44;100.00;100131.02;105686;1253;72865;-55
2023/02/12 05:45:32;;;;;;;22.50;13.20;;;;;;;-1.46;100.00;100126.92;105690;1257;61407;-55
2023/02/12 05:48:01;;;;;;;21.90;12.80;;;;;;;-1.50;100.00;100124.11;105760;1254;60905;-57
2023/02/12 05:50:33;;;;;;;21.00;12.40;;;;;;;-1.53;100.00;100130.44;105778;1256;75782;-58
2023/02/12 05:53:08;;;;;;;20.20;13.00;;;;;;;-1.57;100.00;100125.81;105848;1257;66958;-55
2023/02/12 05:55:37;;;;;;;20.10;12.70;;;;;;;-1.61;100.00;100128.12;105858;1254;73204;-56
2023/02/12 05:58:06;;;;;;;21.10;13.00;;;;;;;-1.64;100.00;100126.84;105722;1254;62511;-56
2023/02/12 06:00:34;;;;;;;21.50;13.10;;;;;;;-1.65;100.00;100120.58;105794;1256;61154;-59
2023/02/12 06:03:03;;;;;;;20.60;12.90;;;;;;;-1.65;100.00;100123.47;105569;1254;74323;-57
2023/02/12 06:05:33;;;;;;;20.40;13.40;;;;;;;-1.64;100.00;100118.66;105657;1254;68625;-56
2023/02/12 06:08:02;;;;;;;20.60;12.60;;;;;;;-1.63;100.00;100120.60;105685;1255;74495;-55
2023/02/12 06:10:32;;;;;;;20.50;12.90;;;;;;;-1.62;100.00;100124.31;105734;1254;62046;-60
2023/02/12 06:13:01;;;;;;;20.60;11.50;;;;;;;-1.63;100.00;100119.60;105598;1257;61802;-56
2023/02/12 06:15:30;;;;;;;19.60;12.20;;;;;;;-1.64;100.00;100117.13;105814;1255;75221;-57
2023/02/12 06:17:59;;;;;;;20.90;13.30;;;;;;;-1.64;100.00;100116.09;105947;1253;68401;-57
2023/02/12 06:20:28;;;;;;;24.00;13.30;;;;;;;-1.63;100.00;100113.45;105559;1256;74652;-56
2023/02/12 06:22:56;;;;;;;21.70;12.60;;;;;;;-1.62;100.00;100112.55;105883;1254;62764;-55
2023/02/12 06:25:25;;;;;;;18.80;12.30;;;;;;;-1.62;100.00;100106.89;105778;1254;61768;-57
2023/02/12 06:27:54;;;;;;;19.60;12.30;;;;;;;-1.60;100.00;100104.89;105510;1254;74452;-60
2023/02/12 06:30:23;;;;;;;21.40;13.00;;;;;;;-1.57;100.00;100101.93;105533;1254;67302;-55
2023/02/12 06:32:52;;;;;;;22.30;14.60;;;;;;;-1.56;100.00;100105.46;105547;1254;73733;-56
2023/02/12 06:35:21;;;;;;;22.90;13.30;;;;;;;-1.56;100.00;100103.91;105512;1254;62502;-56
2023/02/12 06:37:52;;;;;;;23.70;14.00;;;;;;;-1.54;100.00;100096.79;105955;1253;60673;-57
2023/02/12 06:40:21;;;;;;;20.60;13.60;;;;;;;-1.51;100.00;100094.52;105618;1254;74916;-55
2023/02/12 06:42:49;;;;;;;20.50;12.90;;;;;;;-1.49;100.00;100097.11;105737;1253;68603;-56
2023/02/12 06:45:18;;;;;;;24.70;13.80;;;;;;;-1.45;100.00;100098.91;105537;1254;74294;-55
2023/02/12 06:47:47;;;;;;;21.60;12.90;;;;;;;-1.42;100.00;100100.05;105902;1256;61499;-57
2023/02/12 06:50:15;;;;;;;21.70;13.20;;;;;;;-1.40;100.00;100091.21;105478;1254;61666;-56
2023/02/12 06:52:45;;;;;;;20.90;13.20;;;;;;;-1.40;100.00;100093.39;105798;1256;75319;-56
2023/02/12 06:55:14;;;;;;;23.30;12.90;;;;;;;-1.39;100.00;100096.23;105679;1254;67004;-55
2023/02/12 06:57:42;;;;;;;19.80;13.10;;;;;;;-1.39;100.00;100097.30;105887;1254;74171;-57
2023/02/12 07:00:13;;;;;;;19.80;13.30;;;;;;;-1.38;100.00;100095.63;105551;1256;60561;-56
2023/02/12 07:02:42;;;;;;;21.50;13.50;;;;;;;-1.34;100.00;100095.36;105525;1256;61037;-56
2023/02/12 07:05:11;;;;;;;24.00;14.20;;;;;;;-1.31;100.00;100095.28;105592;1256;75364;-57
2023/02/12 07:07:40;;;;;;;23.80;14.50;;;;;;;-1.31;100.00;100097.70;105619;1257;68020;-55
2023/02/12 07:10:09;;;;;;;21.40;13.60;;;;;;;-1.32;100.00;100091.78;105465;1256;73244;-54
2023/02/12 07:12:39;;;;;;;21.80;14.00;;;;;;;-1.31;100.00;100094.61;105454;1254;61488;-54
2023/02/12 07:15:08;;;;;;;23.00;14.40;;;;;;;-1.31;100.00;100092.91;105450;1254;60425;-57
2023/02/12 07:17:37;;;;;;;22.20;15.10;;;;;;;-1.32;100.00;100092.48;105674;1256;75569;-58
2023/02/12 07:20:06;;;;;;;24.80;14.70;;;;;;;-1.34;100.00;100093.96;105538;1256;68961;-54
2023/02/12 07:22:35;;;;;;;26.00;15.00;;;;;;;-1.33;100.00;100097.81;105354;1259;73268;-55
2023/02/12 07:25:04;;;;;;;25.30;15.30;;;;;;;-1.31;100.00;100096.32;105381;1259;61722;-55
2023/02/12 07:27:35;;;;;;;25.60;15.70;;;;;;;-1.27;100.00;100094.83;105565;1257;60377;-56
2023/02/12 07:30:05;;;;;;;25.30;15.10;;;;;;;-1.23;100.00;100092.30;105400;1254;75112;-55
2023/02/12 07:32:34;;;;;;;24.20;15.40;;;;;;;-1.20;100.00;100096.06;105358;1254;67344;-54
2023/02/12 07:35:03;;;;;;;23.50;14.90;;;;;;;-1.18;100.00;100096.41;105459;1254;71779;-56
2023/02/12 07:37:33;;;;;;;23.10;14.80;;;;;;;-1.13;100.00;100094.70;105801;1254;62081;-60
2023/02/12 07:40:01;;;;;;;23.80;15.30;;;;;;;-1.06;100.00;100092.81;105072;1259;62420;-56
2023/02/12 07:42:30;;;;;;;24.00;15.30;;;;;;;-0.99;100.00;100089.39;105414;1254;74031;-56
2023/02/12 07:45:00;;;;;;;25.60;15.80;;;;;;;-0.90;100.00;100093.33;105392;1255;67657;-55
2023/02/12 07:47:29;;;;;;;22.80;14.80;;;;;;;-0.84;100.00;100091.36;105803;1253;73913;-57
2023/02/12 07:49:57;;;;;;;26.50;15.90;;;;;;;-0.83;100.00;100094.51;105342;1258;61037;-56
2023/02/12 07:52:26;;;;;;;26.00;15.40;;;;;;;-0.84;100.00;100088.42;105453;1259;61798;-57
2023/02/12 07:54:56;;;;;;;28.20;15.20;;;;;;;-0.86;100.00;100089.99;105396;1254;75449;-57
2023/02/12 07:57:25;;;;;;;23.10;15.60;;;;;;;-0.89;100.00;100086.73;105711;1254;68632;-60
2023/02/12 07:59:54;;;;;;;24.80;15.70;;;;;;;-0.90;100.00;100087.02;105139;1254;75128;-57
2023/02/12 08:02:25;;;;;;;23.60;15.70;;;;;;;-0.92;100.00;100089.55;105478;1257;61433;-56
2023/02/12 08:04:55;;;;;;;26.80;15.80;;;;;;;-0.96;100.00;100086.42;105549;1256;62091;-56
2023/02/12 08:07:24;;;;;;;22.20;15.20;;;;;;;-0.99;100.00;100084.81;105684;1254;75410;-61
2023/02/12 08:09:52;;;;;;;22.60;15.10;;;;;;;-0.99;100.00;100088.70;105412;1257;68095;-56
2023/02/12 08:12:22;;;;;;;23.10;14.20;;;;;;;-0.99;100.00;100087.50;105624;1257;73887;-55
2023/02/12 08:14:54;;;;;;;24.50;15.50;;;;;;;-0.98;100.00;100089.35;105508;1254;62392;-54
2023/02/12 08:17:22;;;;;;;22.40;14.30;;;;;;;-0.98;100.00;100093.23;105043;1254;60557;-56
2023/02/12 08:19:51;;;;;;;21.60;14.70;;;;;;;-0.94;100.00;100096.23;105498;1254;75626;-57
2023/02/12 08:22:20;;;;;;;20.40;13.20;;;;;;;-0.91;100.00;100097.14;105497;1256;68573;-55
2023/02/12 08:24:48;;;;;;;21.10;13.60;;;;;;;-0.88;100.00;100102.23;105542;1254;74345;-61
2023/02/12 08:27:17;;;;;;;20.10;13.20;;;;;;;-0.83;100.00;100103.54;105238;1254;62729;-56
2023/02/12 08:29:46;;;;;;;21.20;14.40;;;;;;;-0.78;100.00;100103.71;105437;1254;61880;-56
2023/02/12 08:32:15;;;;;;;20.40;12.70;;;;;;;-0.73;100.00;100110.13;105453;1254;74391;-55
2023/02/12 08:34:44;;;;;;;21.70;14.30;;;;;;;-0.68;100.00;100110.66;105737;1256;68593;-60
2023/02/12 08:37:13;;;;;;;25.00;16.10;;;;;;;-0.65;100.00;100117.60;105688;1256;74513;-57
2023/02/12 08:39:42;;;;;;;19.30;13.40;;;;;;;-0.61;100.00;100120.50;105492;1254;62426;-57
2023/02/12 08:42:11;;;;;;;19.30;13.30;;;;;;;-0.56;100.00;100119.97;105519;1256;60794;-56
2023/02/12 08:44:41;;;;;;;20.10;13.50;;;;;;;-0.46;100.00;100127.63;105643;1254;75388;-61
2023/02/12 08:47:10;;;;;;;23.00;14.40;;;;;;;-0.37;100.00;100123.50;105485;1254;67306;-57
2023/02/12 08:49:40;;;;;;;20.40;13.40;;;;;;;-0.27;100.00;100127.52;105424;1254;72968;-54
2023/02/12 08:52:08;;;;;;;19.20;12.60;;;;;;;-0.16;100.00;100131.96;105462;1256;62494;-54
2023/02/12 08:54:38;;;;;;;19.30;12.40;;;;;;;-0.04;100.00;100130.36;105596;1253;60830;-56
2023/02/12 08:57:08;;;;;;;17.70;11.20;;;;;;;0.10;100.00;100128.29;105501;1254;74169;-58
2023/02/12 08:59:37;;;;;;;17.40;11.50;;;;;;;0.24;100.00;100128.70;105521;1256;68556;-57
2023/02/12 09:02:07;;;;;;;16.10;11.50;;;;;;;0.41;100.00;100125.48;105402;1260;74232;-57
2023/02/12 09:04:36;;;;;;;14.70;10.70;;;;;;;0.56;100.00;100125.48;105981;1258;61315;-56
2023/02/12 09:07:05;;;;;;;14.30;9.30;;;;;;;0.68;100.00;100130.00;105517;1256;60402;-57
2023/02/12 09:09:37;;;;;;;12.40;8.70;;;;;;;0.83;100.00;100135.00;105497;1255;74526;-55
2023/02/12 09:12:07;;;;;;;10.40;6.80;;;;;;;0.94;100.00;100135.10;105447;1254;67430;-58
2023/02/12 09:14:37;;;;;;;9.90;6.60;;;;;;;1.06;100.00;100141.52;105477;1254;73329;-56
2023/02/12 09:17:05;;;;;;;9.10;5.00;;;;;;;1.18;100.00;100133.47;105346;1257;62797;-55
2023/02/12 09:19:35;;;;;;;6.50;4.10;;;;;;;1.29;100.00;100134.89;105582;1254;60584;-57
2023/02/12 09:22:04;;;;;;;6.10;3.30;;;;;;;1.36;100.00;100136.13;105944;1256;75289;-63
2023/02/12 09:24:36;;;;;;;5.00;3.10;;;;;;;1.42;100.00;100137.33;105387;1255;68593;-55
2023/02/12 09:27:05;;;;;;;4.30;2.50;;;;;;;1.52;100.00;100141.29;105432;1254;73132;-56
2023/02/12 09:29:35;;;;;;;4.80;2.50;;;;;;;1.63;100.00;100141.27;105604;1254;60428;-57
2023/02/12 09:32:05;;;;;;;3.20;1.60;;;;;;;1.68;100.00;100141.34;105491;1254;60756;-56
2023/02/12 09:34:35;;;;;;;3.60;1.60;;;;;;;1.75;100.00;100145.73;105268;1256;75118;-55
2023/02/12 09:37:04;;;;;;;3.90;1.80;;;;;;;1.77;100.00;100145.77;105442;1256;67374;-57
2023/02/12 09:39:33;;;;;;;2.50;0.90;;;;;;;1.83;100.00;100144.67;105845;1254;73193;-60
2023/02/12 09:42:24;;;;;;;2.80;1.00;;;;;;;1.89;100.00;100149.66;105147;1257;61061;-58
2023/02/12 09:45:25;;;;;;;3.50;1.20;;;;;;;1.86;100.00;100143.74;105397;1257;60660;-59
2023/02/12 09:48:19;;;;;;;4.10;1.70;;;;;;;1.84;100.00;100149.98;105175;1253;74305;-59
2023/02/12 09:50:59;;;;;;;2.40;0.80;;;;;;;1.87;100.00;100150.00;105314;1254;67889;-59
2023/02/12 09:53:29;;;;;;;3.80;1.50;;;;;;;1.97;100.00;100151.25;105494;1257;73244;-58
2023/02/12 09:55:58;;;;;;;2.70;0.90;;;;;;;2.17;100.00;100148.49;105394;1258;61088;-59
2023/02/12 09:58:46;;;;;;;1.90;0.70;;;;;;;2.38;100.00;100149.81;105364;1254;60689;-59
2023/02/12 10:01:17;;;;;;;1.40;0.60;;;;;;;2.48;100.00;100143.06;105253;1259;75065;-60
2023/02/12 10:03:48;;;;;;;5.50;1.30;;;;;;;2.46;100.00;100136.76;105512;1258;68351;-60
2023/02/12 10:06:36;;;;;;;3.40;1.40;;;;;;;2.38;100.00;100135.89;105053;1257;74400;-59
2023/02/12 10:09:35;;;;;;;2.90;0.80;;;;;;;2.28;100.00;100134.40;105332;1254;60513;-60
2023/02/12 10:12:10;;;;;;;2.20;0.60;;;;;;;2.13;100.00;100125.66;105631;1253;62184;-60
2023/02/12 10:14:48;;;;;;;3.50;0.80;;;;;;;2.01;100.00;100125.85;105591;1257;75210;-59
2023/02/12 10:18:16;;;;;;;1.60;0.60;;;;;;;2.17;100.00;100121.78;105439;1257;68784;-60
2023/02/12 10:20:52;;;;;;;2.50;0.50;;;;;;;2.81;100.00;100114.23;105204;1254;72784;-62
2023/02/12 10:23:34;;;;;;;2.50;0.70;;;;;;;3.45;100.00;100115.20;105353;1260;60437;-60
2023/02/12 10:26:10;;;;;;;2.10;0.70;;;;;;;4.02;100.00;100112.17;105586;1254;61445;-62
2023/02/12 10:28:39;;;;;;;1.60;0.60;;;;;;;4.22;100.00;100120.80;105414;1254;73705;-62
2023/02/12 10:31:28;;;;;;;2.70;0.50;;;;;;;4.04;100.00;100123.77;109299;1254;67717;-61
2023/02/12 10:33:58;;;;;;;2.20;0.40;;;;;;;3.61;100.00;100132.64;106344;1257;73118;-60
2023/02/12 10:36:43;;;;;;;2.60;0.60;;;;;;;3.06;100.00;100138.13;105822;1254;60889;-60
2023/02/12 10:39:44;;;;;;;2.10;0.50;;;;;;;2.44;100.00;100138.81;105784;1254;61793;-72
2023/02/12 10:42:18;;;;;;;3.60;1.20;;;;;;;1.96;100.00;100142.37;106098;1256;75470;-59
2023/02/12 10:44:47;;;;;;;2.70;0.80;;;;;;;1.67;100.00;100135.25;105539;1254;67744;-66
2023/02/12 10:47:18;;;;;;;2.40;0.90;;;;;;;1.49;100.00;100144.08;105199;1254;71713;-60
2023/02/12 10:50:01;;;;;;;2.40;0.70;;;;;;;1.44;100.00;100143.23;105599;1260;61037;-63
2023/02/12 10:52:55;;;;;;;2.60;1.10;;;;;;;1.49;100.00;100144.81;105177;1259;60568;-67
2023/02/12 10:55:34;;;;;;;2.20;0.70;;;;;;;1.63;100.00;100154.07;105420;1255;75337;-61
2023/02/12 10:58:03;;;;;;;2.60;0.80;;;;;;;1.76;100.00;100151.81;105833;1260;66848;-65
2023/02/12 11:00:36;;;;;;;2.20;0.60;;;;;;;1.84;100.00;100152.19;105424;1254;73938;-61
2023/02/12 11:03:11;;;;;;;1.80;0.50;;;;;;;1.90;100.00;100149.11;105291;1255;61190;-61
2023/02/12 11:05:41;;;;;;;2.40;0.60;;;;;;;1.92;100.00;100154.36;105418;1254;61358;-59
2023/02/12 11:08:29;;;;;;;5.40;0.90;;;;;;;1.91;100.00;100151.58;105506;1259;74621;-63
2023/02/12 11:11:29;;;;;;;2.10;0.70;;;;;;;1.88;100.00;100157.83;105567;1258;68625;-58
2023/02/12 11:14:04;;;;;;;2.10;0.50;;;;;;;1.75;100.00;100162.39;105145;1262;73264;-58
2023/02/12 11:16:35;;;;;;;2.90;1.00;;;;;;;1.55;100.00;100173.56;105209;1260;60848;-58
2023/02/12 11:19:05;;;;;;;2.80;0.90;;;;;;;1.39;100.00;100172.84;105737;1259;61808;-69
2023/02/12 11:21:35;;;;;;;2.90;1.10;;;;;;;1.24;100.00;100182.48;105397;1260;75181;-60
2023/02/12 11:24:20;;;;;;;3.30;0.90;;;;;;;1.13;100.00;100189.39;105420;1260;69304;-60
2023/02/12 11:26:49;;;;;;;3.70;1.30;;;;;;;1.05;100.00;100192.80;105504;1254;74134;-65
2023/02/12 11:29:23;;;;;;;4.10;1.40;;;;;;;0.92;100.00;100193.30;105280;1254;60542;-59